Time;durP1;ratioP1;P1;durP2;ratioP2;P2;SDS_P1;SDS_P2;PMS_P1;PMS_P2;Temp;Humidity;BMP_temperature;BMP_pressure;BME280_temperature;BME280_humidity;BME280_pressure;Samples;Min_cycle;Max_cycle;Signal;HPM_P1;HPM_P2
2022/04/16 00:01:48;;;;;;;26.83;17.52;;;7.60;99.90;;;;;;5134023;27;20051;-27
2022/04/16 00:04:19;;;;;;;24.10;17.50;;;7.60;99.90;;;;;;5114460;28;20126;-27
2022/04/16 00:06:45;;;;;;;23.08;17.52;;;7.50;99.90;;;;;;5114152;28;20065;-27
2022/04/16 00:09:13;;;;;;;23.65;17.65;;;7.50;99.90;;;;;;5114008;28;20036;-27
2022/04/16 00:11:44;;;;;;;24.30;16.80;;;7.40;99.90;;;;;;5079155;28;20484;-27
2022/04/16 00:14:19;;;;;;;25.65;17.90;;;7.40;99.90;;;;;;5136116;27;20047;-28
2022/04/16 00:16:48;;;;;;;23.70;17.17;;;7.30;99.90;;;;;;5142104;27;20039;-27
2022/04/16 00:19:19;;;;;;;24.20;17.38;;;7.30;99.90;;;;;;5102379;28;20066;-27
2022/04/16 00:21:47;;;;;;;25.73;17.27;;;7.10;99.90;;;;;;5102866;28;20058;-27
2022/04/16 00:24:15;;;;;;;23.50;17.15;;;7.00;99.90;;;;;;5121148;28;20062;-27
2022/04/16 00:26:48;;;;;;;34.50;19.85;;;6.90;99.90;;;;;;5140405;27;20043;-27
2022/04/16 00:29:14;;;;;;;24.25;16.67;;;6.80;1.00;;;;;;5123265;27;20070;-27
2022/04/16 00:31:46;;;;;;;28.80;18.45;;;6.70;99.90;;;;;;5092471;28;20043;-27
2022/04/16 00:34:14;;;;;;;25.55;18.05;;;6.60;99.90;;;;;;5086054;28;20053;-27
2022/04/16 00:36:44;;;;;;;26.17;18.67;;;6.50;47.90;;;;;;5102697;28;20050;-27
2022/04/16 00:39:14;;;;;;;23.58;18.60;;;6.40;95.60;;;;;;5105904;27;20054;-27
2022/04/16 00:41:47;;;;;;;27.10;19.27;;;6.30;23.40;;;;;;5141272;27;20108;-27
2022/04/16 00:44:15;;;;;;;36.45;20.40;;;6.20;19.80;;;;;;5141549;27;20039;-28
2022/04/16 00:46:44;;;;;;;29.98;20.55;;;6.10;99.90;;;;;;5085875;27;20072;-27
2022/04/16 00:49:14;;;;;;;28.58;20.27;;;6.10;99.90;;;;;;5116526;27;20088;-27
2022/04/16 00:51:45;;;;;;;31.48;20.33;;;6.00;78.40;;;;;;5141479;27;20092;-26
2022/04/16 00:54:14;;;;;;;31.20;21.70;;;5.90;32.80;;;;;;5141177;27;20051;-27
2022/04/16 00:56:42;;;;;;;34.78;22.30;;;5.80;22.30;;;;;;5120802;27;20628;-27
2022/04/16 00:59:12;;;;;;;37.22;22.40;;;5.80;99.90;;;;;;5120492;28;20040;-27
2022/04/16 01:01:45;;;;;;;38.05;22.55;;;5.70;99.90;;;;;;5102909;28;20042;-27
2022/04/16 01:04:11;;;;;;;37.70;22.63;;;5.60;99.90;;;;;;5121334;28;20044;-27
2022/04/16 01:06:48;;;;;;;42.55;24.42;;;5.60;99.90;;;;;;5118412;27;21377;-27
2022/04/16 01:09:14;;;;;;;37.13;25.55;;;5.60;99.90;;;;;;5121224;28;20108;-27
2022/04/16 01:11:45;;;;;;;39.40;26.10;;;5.60;99.90;;;;;;5120361;28;20086;-27
2022/04/16 01:14:11;;;;;;;39.30;26.17;;;5.60;99.90;;;;;;5102617;28;20043;-27
2022/04/16 01:16:38;;;;;;;40.78;24.98;;;5.60;99.90;;;;;;5084446;28;20096;-27
2022/04/16 01:19:11;;;;;;;43.50;24.48;;;5.60;99.90;;;;;;5102242;28;20055;-26
2022/04/16 01:21:39;;;;;;;38.65;25.02;;;5.60;99.90;;;;;;5124250;27;20473;-27
2022/04/16 01:24:09;;;;;;;38.63;26.13;;;5.60;99.90;;;;;;5120406;28;20063;-27
2022/04/16 01:26:42;;;;;;;42.03;24.88;;;5.60;99.90;;;;;;5099084;28;20066;-27
2022/04/16 01:29:11;;;;;;;42.22;27.25;;;5.60;99.90;;;;;;5117574;28;20046;-27
2022/04/16 01:31:39;;;;;;;42.45;26.85;;;5.60;1.00;;;;;;5136007;27;20110;-26
2022/04/16 01:34:08;;;;;;;43.92;26.50;;;5.60;1.00;;;;;;5119217;27;20068;-27
2022/04/16 01:36:34;;;;;;;45.33;27.55;;;5.50;99.90;;;;;;5119387;27;20047;-27
2022/04/16 01:39:07;;;;;;;44.80;27.98;;;5.50;99.90;;;;;;5137299;27;20051;-27
2022/04/16 01:41:40;;;;;;;46.80;29.38;;;5.50;99.90;;;;;;5102123;27;20044;-27
2022/04/16 01:44:13;;;;;;;41.83;26.85;;;5.40;1.00;;;;;;5117072;28;20079;-27
2022/04/16 01:46:39;;;;;;;43.22;27.45;;;5.40;1.00;;;;;;5123837;27;20034;-26
2022/04/16 01:49:05;;;;;;;55.05;31.30;;;5.40;1.00;;;;;;5137099;27;20119;-27
2022/04/16 01:51:30;;;;;;;46.65;28.45;;;5.30;1.00;;;;;;5137121;27;20051;-27
2022/04/16 01:54:03;;;;;;;48.88;29.42;;;5.20;1.00;;;;;;5118733;27;20066;-27
2022/04/16 01:56:36;;;;;;;47.25;29.48;;;5.20;1.00;;;;;;5118671;27;20044;-27
2022/04/16 01:59:12;;;;;;;53.65;29.00;;;5.10;1.00;;;;;;5116779;28;20035;-27
2022/04/16 02:01:41;;;;;;;51.72;29.08;;;5.10;1.00;;;;;;5117292;28;20366;-27
2022/04/16 02:04:07;;;;;;;52.05;29.73;;;5.10;1.00;;;;;;5116917;28;20049;-27
2022/04/16 02:06:35;;;;;;;46.78;27.95;;;5.10;1.00;;;;;;5081882;28;20044;-27
2022/04/16 02:09:06;;;;;;;51.00;30.30;;;5.10;1.00;;;;;;5116146;28;20040;-27
2022/04/16 02:11:34;;;;;;;50.88;31.25;;;5.00;1.00;;;;;;5116230;28;20053;-27
2022/04/16 02:13:59;;;;;;;45.25;28.42;;;5.00;1.00;;;;;;5116114;28;20173;-26
2022/04/16 02:16:28;;;;;;;54.65;30.60;;;4.90;1.00;;;;;;5099364;28;20161;-27
2022/04/16 02:18:53;;;;;;;55.58;31.08;;;4.90;1.00;;;;;;5098795;28;20473;-27
2022/04/16 02:21:20;;;;;;;62.03;32.90;;;4.90;1.00;;;;;;5097613;28;20088;-27
2022/04/16 02:23:46;;;;;;;59.05;32.47;;;4.90;1.00;;;;;;5097942;28;20549;-27
2022/04/16 02:26:11;;;;;;;51.75;30.92;;;4.80;1.00;;;;;;5114686;27;20131;-27
2022/04/16 02:28:37;;;;;;;58.90;34.28;;;4.80;1.00;;;;;;5118614;27;20438;-27
2022/04/16 02:31:05;;;;;;;61.53;32.25;;;4.80;1.00;;;;;;5135975;27;20043;-27
2022/04/16 02:33:33;;;;;;;53.58;31.23;;;4.80;1.00;;;;;;5129546;27;20036;-27
2022/04/16 02:36:01;;;;;;;55.03;31.40;;;4.60;1.00;;;;;;5115720;28;20066;-26
2022/04/16 02:38:27;;;;;;;61.78;31.73;;;4.60;1.00;;;;;;5097415;28;20050;-27
2022/04/16 02:40:53;;;;;;;60.55;32.05;;;4.70;1.00;;;;;;5110342;27;20047;-27
2022/04/16 02:43:21;;;;;;;65.30;36.30;;;4.60;1.00;;;;;;5136082;27;20066;-28
2022/04/16 02:48:36;;;;;;;71.53;34.67;;;4.50;1.00;;;;;;5135634;27;20480;-27
2022/04/16 02:51:02;;;;;;;65.57;35.60;;;4.50;1.00;;;;;;5104253;28;20101;-27
2022/04/16 02:53:31;;;;;;;74.03;36.80;;;4.50;1.00;;;;;;5097056;28;20567;-27
2022/04/16 02:56:00;;;;;;;70.45;36.30;;;4.40;1.00;;;;;;5097041;28;20054;-26
2022/04/16 02:58:26;;;;;;;76.93;39.22;;;4.40;1.00;;;;;;5115245;28;20055;-27
2022/04/16 03:00:55;;;;;;;82.40;41.42;;;4.50;20.60;;;;;;5109978;27;20556;-26
2022/04/16 03:03:22;;;;;;;86.97;42.95;;;4.60;23.10;;;;;;5135641;27;20047;-27
2022/04/16 03:05:51;;;;;;;91.30;44.50;;;4.80;84.00;;;;;;5135674;27;20110;-27
2022/04/16 03:08:19;;;;;;;91.88;43.00;;;4.90;99.90;;;;;;5117725;27;20046;-27
2022/04/16 03:10:47;;;;;;;92.50;43.75;;;5.10;99.90;;;;;;5123516;27;20481;-27
2022/04/16 03:13:17;;;;;;;82.13;41.28;;;5.20;99.90;;;;;;5096814;28;20047;-26
2022/04/16 03:18:28;;;;;;;80.22;41.33;;;5.50;99.90;;;;;;5115500;28;20047;-27
2022/04/16 03:20:57;;;;;;;79.30;41.38;;;5.60;99.90;;;;;;5127241;27;20070;-27
2022/04/16 03:23:25;;;;;;;72.13;40.53;;;5.70;99.90;;;;;;5116432;27;20159;-27
2022/04/16 03:25:53;;;;;;;70.18;40.50;;;5.80;99.90;;;;;;5136120;27;20155;-27
2022/04/16 03:28:19;;;;;;;69.45;38.33;;;5.90;99.90;;;;;;5117248;27;20083;-27
2022/04/16 03:30:47;;;;;;;59.22;37.28;;;6.10;99.90;;;;;;5105321;28;20067;-27
2022/04/16 03:33:13;;;;;;;60.42;36.67;;;6.20;99.90;;;;;;5079613;28;20396;-27
2022/04/16 03:35:39;;;;;;;54.33;34.80;;;6.30;99.90;;;;;;5096549;28;20039;-27
2022/04/16 03:38:05;;;;;;;58.58;36.38;;;6.40;99.90;;;;;;5114490;28;20047;-27
2022/04/16 03:40:35;;;;;;;57.80;36.35;;;6.50;99.90;;;;;;5122898;27;20039;-28
2022/04/16 03:43:03;;;;;;;59.08;34.92;;;6.60;99.90;;;;;;5135619;27;20043;-27
2022/04/16 03:45:33;;;;;;;53.92;35.90;;;6.60;99.90;;;;;;5116833;27;20073;-27
2022/04/16 03:48:04;;;;;;;49.42;34.40;;;6.70;99.90;;;;;;5117061;27;20043;-27
2022/04/16 03:50:32;;;;;;;50.35;32.65;;;6.80;99.90;;;;;;5124787;27;20051;-27
2022/04/16 03:53:02;;;;;;;46.97;32.97;;;6.90;99.90;;;;;;5079377;28;20046;-27
2022/04/16 04:01:09;;;;;;;45.97;32.22;;;7.10;99.90;;;;;;5128183;27;20496;-27
2022/04/16 04:03:36;;;;;;;42.88;30.63;;;7.10;99.90;;;;;;5134735;27;20047;-27
2022/04/16 04:06:02;;;;;;;39.45;30.42;;;7.20;99.90;;;;;;5134659;27;20083;-27
2022/04/16 04:08:28;;;;;;;44.30;31.23;;;7.20;99.90;;;;;;5135146;27;20089;-27
2022/04/16 04:10:54;;;;;;;41.13;29.90;;;7.20;57.10;;;;;;5121364;27;20054;-27
2022/04/16 04:13:20;;;;;;;44.22;30.35;;;7.30;1.00;;;;;;5114878;28;20052;-27
2022/04/16 04:15:46;;;;;;;39.72;28.10;;;7.20;1.00;;;;;;5114045;28;20405;-27
2022/04/16 04:18:12;;;;;;;38.92;28.02;;;7.20;1.00;;;;;;5096088;28;20051;-27
2022/04/16 04:20:38;;;;;;;37.00;27.70;;;7.20;1.00;;;;;;5124982;28;20043;-27
2022/04/16 04:23:04;;;;;;;38.08;28.42;;;7.20;99.90;;;;;;5133826;28;20051;-27
2022/04/16 04:25:30;;;;;;;42.05;29.80;;;7.20;99.90;;;;;;5099328;28;20050;-27
2022/04/16 04:28:01;;;;;;;42.83;30.20;;;7.20;99.90;;;;;;5135007;28;20043;-27
2022/04/16 04:30:27;;;;;;;44.70;31.90;;;7.20;99.90;;;;;;5125259;28;20393;-27
2022/04/16 04:33:00;;;;;;;45.15;32.22;;;7.10;99.90;;;;;;5079015;28;20039;-27
2022/04/16 04:35:29;;;;;;;46.95;33.03;;;7.10;99.90;;;;;;5095485;28;20086;-27
2022/04/16 04:37:56;;;;;;;48.33;34.17;;;7.10;99.90;;;;;;5114308;28;20056;-27
2022/04/16 04:40:22;;;;;;;50.47;33.28;;;7.10;99.90;;;;;;5121294;28;20039;-27
2022/04/16 04:42:51;;;;;;;54.97;34.20;;;7.10;99.90;;;;;;5116056;28;20047;-27
2022/04/16 04:45:20;;;;;;;52.22;34.85;;;7.10;99.90;;;;;;5134343;28;20050;-27
2022/04/16 04:47:45;;;;;;;46.60;33.17;;;7.00;99.90;;;;;;5124717;28;20114;-28
2022/04/16 04:50:12;;;;;;;51.38;34.33;;;7.00;99.90;;;;;;5113655;28;20126;-27
2022/04/16 04:52:39;;;;;;;49.67;35.03;;;7.00;99.90;;;;;;5114017;28;20123;-27
2022/04/16 04:55:10;;;;;;;53.13;35.85;;;7.00;99.90;;;;;;5119184;28;20118;-27
2022/04/16 04:57:36;;;;;;;55.47;36.45;;;7.00;99.90;;;;;;5116499;28;20087;-27
2022/04/16 05:00:04;;;;;;;45.88;32.75;;;7.00;99.90;;;;;;5134945;27;20039;-28
2022/04/16 05:02:47;;;;;;;44.25;32.92;;;7.00;99.90;;;;;;5120544;27;20357;-27
2022/04/16 05:05:14;;;;;;;50.42;34.30;;;7.00;93.70;;;;;;5131948;27;20062;-27
2022/04/16 05:07:43;;;;;;;49.38;31.70;;;7.00;18.30;;;;;;5099449;28;20058;-27
2022/04/16 05:10:09;;;;;;;49.75;35.03;;;7.00;1.00;;;;;;5099336;28;20086;-27
2022/04/16 05:12:37;;;;;;;50.13;34.67;;;7.10;1.00;;;;;;5124889;27;20046;-27
2022/04/16 05:15:06;;;;;;;48.42;34.30;;;7.10;1.00;;;;;;5119525;27;20046;-27
2022/04/16 05:17:37;;;;;;;48.55;34.95;;;7.10;1.00;;;;;;5137785;27;20039;-28
2022/04/16 05:20:06;;;;;;;56.55;36.70;;;7.10;1.00;;;;;;5136333;27;20143;-27
2022/04/16 05:22:34;;;;;;;52.42;36.20;;;7.10;1.00;;;;;;5137629;27;20056;-27
2022/04/16 05:24:59;;;;;;;50.45;34.50;;;7.20;1.00;;;;;;5138222;27;20073;-27
2022/04/16 05:27:30;;;;;;;51.85;35.38;;;7.20;1.00;;;;;;5102488;27;20476;-28
2022/04/16 05:30:13;;;;;;;46.42;34.30;;;7.20;1.00;;;;;;5132632;27;20489;-27
2022/04/16 05:32:45;;;;;;;46.38;34.05;;;7.20;1.00;;;;;;5118186;28;20499;-27
2022/04/16 05:35:11;;;;;;;43.38;30.73;;;7.20;1.00;;;;;;5117101;28;20067;-27
2022/04/16 05:37:42;;;;;;;44.58;32.90;;;7.30;1.00;;;;;;5125870;27;20050;-27
2022/04/16 05:40:11;;;;;;;45.72;33.08;;;7.30;1.00;;;;;;5119824;27;20385;-27
2022/04/16 05:42:43;;;;;;;45.65;31.65;;;7.30;1.00;;;;;;5119073;27;20069;-28
2022/04/16 05:45:14;;;;;;;43.30;29.65;;;7.40;1.00;;;;;;5130948;27;20454;-27
2022/04/16 05:47:41;;;;;;;40.53;28.25;;;7.40;99.90;;;;;;5099524;28;20431;-27
2022/04/16 05:50:08;;;;;;;36.45;27.27;;;7.40;1.00;;;;;;5081774;28;20040;-27
2022/04/16 05:52:41;;;;;;;40.42;28.02;;;7.50;99.90;;;;;;5098366;28;20054;-27
2022/04/16 05:55:12;;;;;;;39.13;28.63;;;7.50;99.90;;;;;;5104194;27;20050;-27
2022/04/16 05:57:39;;;;;;;37.92;27.65;;;7.50;99.90;;;;;;5137043;27;20043;-29
2022/04/16 06:00:07;;;;;;;34.53;26.17;;;7.60;99.90;;;;;;5118733;27;20125;-29
2022/04/16 06:02:33;;;;;;;30.60;22.98;;;7.60;99.90;;;;;;5128114;27;20448;-27
2022/04/16 06:05:01;;;;;;;28.73;22.85;;;7.60;99.90;;;;;;5116255;28;20083;-27
2022/04/16 06:07:27;;;;;;;32.30;24.23;;;7.70;99.90;;;;;;5116280;28;20047;-27
2022/04/16 06:09:55;;;;;;;31.20;23.15;;;7.70;99.90;;;;;;5121138;27;20361;-28
2022/04/16 06:12:21;;;;;;;28.55;21.83;;;7.80;99.90;;;;;;5100826;27;20099;-27
2022/04/16 06:14:54;;;;;;;28.88;20.80;;;7.80;99.90;;;;;;5106179;28;20039;-27
2022/04/16 06:17:20;;;;;;;26.02;18.88;;;7.90;99.90;;;;;;5098592;28;20504;-27
2022/04/16 06:19:48;;;;;;;24.63;17.65;;;7.90;99.90;;;;;;5100932;27;20114;-28
2022/04/16 06:22:19;;;;;;;26.63;19.58;;;8.00;95.70;;;;;;5136204;27;20058;-27
2022/04/16 06:24:52;;;;;;;23.85;18.60;;;8.00;88.90;;;;;;5118344;27;20492;-27
2022/04/16 06:27:18;;;;;;;24.30;17.05;;;8.10;12.60;;;;;;5118215;27;20039;-27
2022/04/16 06:29:44;;;;;;;25.85;18.40;;;8.10;6.40;;;;;;5117242;27;20050;-27
2022/04/16 06:32:10;;;;;;;24.33;19.33;;;8.10;1.00;;;;;;5080638;28;20058;-27
2022/04/16 06:34:35;;;;;;;26.15;18.17;;;8.10;1.00;;;;;;5115930;28;20043;-27
2022/04/16 06:37:01;;;;;;;25.23;18.35;;;8.20;1.00;;;;;;5097344;28;20473;-28
2022/04/16 06:39:30;;;;;;;25.85;19.50;;;8.20;1.00;;;;;;5115220;28;20128;-27
2022/04/16 06:42:02;;;;;;;27.10;18.55;;;8.30;1.00;;;;;;5132996;27;20131;-27
2022/04/16 06:44:31;;;;;;;25.75;17.55;;;8.40;1.00;;;;;;5136273;27;20047;-27
2022/04/16 06:46:57;;;;;;;22.08;16.45;;;8.50;1.00;;;;;;5101595;27;20051;-27
2022/04/16 06:49:26;;;;;;;23.95;17.27;;;8.60;1.00;;;;;;5136022;27;20126;-27
2022/04/16 06:51:52;;;;;;;25.13;18.05;;;8.60;1.00;;;;;;5099254;28;20042;-27
2022/04/16 06:54:18;;;;;;;25.90;17.08;;;8.60;1.00;;;;;;5115314;28;20081;-27
2022/04/16 06:56:44;;;;;;;23.23;17.65;;;8.60;1.00;;;;;;5115285;28;20051;-27
2022/04/16 06:59:10;;;;;;;24.42;17.40;;;8.70;1.00;;;;;;5115549;28;20047;-27
2022/04/16 07:01:36;;;;;;;24.77;18.20;;;8.70;1.00;;;;;;5116306;27;20144;-27
2022/04/16 07:04:06;;;;;;;26.67;17.85;;;8.70;1.00;;;;;;5097139;28;20471;-27
2022/04/16 07:06:34;;;;;;;23.85;16.60;;;8.70;99.90;;;;;;5115190;28;20035;-27
2022/04/16 07:09:00;;;;;;;25.67;16.08;;;8.80;1.00;;;;;;5114955;28;20079;-27
2022/04/16 07:11:28;;;;;;;22.20;16.88;;;8.80;99.90;;;;;;5128885;27;20433;-27
2022/04/16 07:13:54;;;;;;;22.00;15.07;;;8.80;99.90;;;;;;5135476;27;20050;-27
2022/04/16 07:16:20;;;;;;;24.52;15.25;;;8.80;99.90;;;;;;5135357;27;20043;-27
2022/04/16 07:18:51;;;;;;;22.92;15.05;;;8.80;99.90;;;;;;5116918;27;20039;-27
2022/04/16 07:21:24;;;;;;;19.15;14.18;;;8.80;99.90;;;;;;5133420;27;20050;-28
2022/04/16 07:23:54;;;;;;;19.00;13.23;;;8.90;99.90;;;;;;5134785;27;20148;-27
2022/04/16 07:26:22;;;;;;;18.42;13.10;;;8.90;99.90;;;;;;5135315;27;20062;-27
2022/04/16 07:28:48;;;;;;;18.83;13.85;;;8.90;99.90;;;;;;5135146;27;20473;-27
2022/04/16 07:31:16;;;;;;;19.45;12.75;;;9.00;99.90;;;;;;5104893;28;20051;-28
2022/04/16 07:33:41;;;;;;;17.27;12.13;;;9.00;99.90;;;;;;5097071;28;20126;-27
2022/04/16 07:36:07;;;;;;;18.25;13.68;;;9.10;99.90;;;;;;5079489;28;20130;-27
2022/04/16 07:38:33;;;;;;;16.88;10.82;;;9.10;99.90;;;;;;5127940;27;20043;-27
2022/04/16 07:40:59;;;;;;;16.23;10.93;;;9.10;99.90;;;;;;5135056;27;20134;-27
2022/04/16 07:43:27;;;;;;;16.25;10.82;;;9.20;46.90;;;;;;5099730;27;20122;-27
2022/04/16 07:45:52;;;;;;;16.33;10.45;;;9.30;99.90;;;;;;5124862;27;20480;-27
2022/04/16 07:48:18;;;;;;;13.88;9.88;;;9.30;99.90;;;;;;5114318;28;20079;-27
2022/04/16 07:50:46;;;;;;;19.15;11.40;;;9.40;47.90;;;;;;5096308;28;20046;-27
2022/04/16 07:53:14;;;;;;;21.50;13.88;;;9.40;94.90;;;;;;5114408;28;20044;-27
2022/04/16 07:55:42;;;;;;;17.95;10.95;;;9.50;99.90;;;;;;5102922;27;20107;-27
2022/04/16 07:58:13;;;;;;;13.25;8.55;;;9.60;99.90;;;;;;5134060;27;20047;-27
2022/04/16 08:00:40;;;;;;;15.70;10.27;;;9.70;98.90;;;;;;5103454;27;20043;-28
2022/04/16 08:03:06;;;;;;;22.13;13.95;;;9.80;95.70;;;;;;5116304;27;20047;-27
2022/04/16 08:05:36;;;;;;;17.58;12.57;;;9.90;99.90;;;;;;5134682;27;20082;-27
2022/04/16 08:08:07;;;;;;;17.30;10.77;;;9.90;97.50;;;;;;5111713;28;20052;-28
2022/04/16 08:10:34;;;;;;;15.65;10.55;;;10.00;90.20;;;;;;5114602;28;20048;-27
2022/04/16 08:13:01;;;;;;;13.35;9.63;;;10.00;37.10;;;;;;5113930;28;20048;-27
2022/04/16 08:15:33;;;;;;;14.98;9.82;;;10.10;64.20;;;;;;5101723;28;20128;-27
2022/04/16 08:17:59;;;;;;;14.43;9.00;;;10.10;10.10;;;;;;5134316;28;20039;-27
2022/04/16 08:20:33;;;;;;;12.90;8.60;;;10.10;14.70;;;;;;5128998;28;20115;-27
2022/04/16 08:23:01;;;;;;;12.05;8.45;;;10.10;1.00;;;;;;5096432;28;20094;-27
2022/04/16 08:25:49;;;;;;;12.32;8.57;;;10.20;1.00;;;;;;5117071;28;20039;-27
2022/04/16 08:28:20;;;;;;;15.98;9.43;;;10.20;1.00;;;;;;5134174;28;20035;-27
2022/04/16 08:30:49;;;;;;;11.05;8.25;;;10.30;1.00;;;;;;5133886;28;20404;-27
2022/04/16 08:33:22;;;;;;;12.65;7.97;;;10.40;1.00;;;;;;5099307;28;20043;-27
2022/04/16 08:35:48;;;;;;;14.82;8.77;;;10.50;1.00;;;;;;5109488;28;20071;-27
2022/04/16 08:38:14;;;;;;;14.38;7.95;;;10.50;1.00;;;;;;5099551;28;20086;-27
2022/04/16 08:40:44;;;;;;;11.38;6.70;;;10.60;1.00;;;;;;5099800;28;20044;-30
2022/04/16 08:43:11;;;;;;;10.50;7.22;;;10.60;1.00;;;;;;5118320;28;20396;-27
2022/04/16 08:45:38;;;;;;;10.25;6.45;;;10.70;1.00;;;;;;5119179;27;20051;-27
2022/04/16 08:48:14;;;;;;;11.57;7.07;;;10.70;1.00;;;;;;5095804;28;20059;-27
2022/04/16 08:50:40;;;;;;;8.70;5.63;;;10.80;1.00;;;;;;5117800;28;20047;-27
2022/04/16 08:53:11;;;;;;;7.85;5.10;;;10.80;1.00;;;;;;5099592;28;20047;-27
2022/04/16 08:55:37;;;;;;;6.32;4.65;;;10.80;99.90;;;;;;5115358;27;20043;-28
2022/04/16 08:58:03;;;;;;;8.02;4.20;;;10.90;99.90;;;;;;5119811;27;20498;-27
2022/04/16 09:00:29;;;;;;;6.57;3.67;;;10.80;99.90;;;;;;5124191;27;20044;-27
2022/04/16 09:03:05;;;;;;;6.47;3.40;;;11.00;99.90;;;;;;5118062;28;20391;-27
2022/04/16 09:05:36;;;;;;;5.50;3.25;;;11.20;99.90;;;;;;5100945;28;20126;-27
2022/04/16 09:08:07;;;;;;;2.65;2.05;;;11.90;99.90;;;;;;5117732;28;20040;-27
2022/04/16 09:10:36;;;;;;;5.38;2.83;;;13.00;99.90;;;;;;5118975;27;20062;-27
2022/04/16 09:13:04;;;;;;;3.53;2.42;;;13.60;99.90;;;;;;5117263;28;20044;-27
2022/04/16 09:15:30;;;;;;;5.30;2.88;;;14.20;1.00;;;;;;5117399;28;20047;-27
2022/04/16 09:18:00;;;;;;;4.63;2.50;;;14.70;1.00;;;;;;5099396;28;20079;-25
2022/04/16 09:20:36;;;;;;;4.60;3.22;;;14.80;1.00;;;;;;5122572;27;20033;-25
2022/04/16 09:23:19;;;;;;;5.13;2.67;;;15.10;1.00;;;;;;5115652;28;20059;-26
2022/04/16 09:25:48;;;;;;;4.63;2.50;;;15.40;1.00;;;;;;5116843;28;20098;-25
2022/04/16 09:28:15;;;;;;;3.42;1.90;;;15.50;1.00;;;;;;5105357;28;20127;-26
2022/04/16 09:30:57;;;;;;;3.28;1.92;;;16.00;1.00;;;;;;5095163;28;20051;-25
2022/04/16 09:33:24;;;;;;;4.33;2.30;;;16.20;99.90;;;;;;5097269;28;20051;-25
2022/04/16 09:36:02;;;;;;;4.05;1.67;;;15.90;1.00;;;;;;5095655;28;20109;-26
2022/04/16 09:38:37;;;;;;;3.78;2.00;;;15.80;99.90;;;;;;5096240;28;20435;-25
2022/04/16 09:41:16;;;;;;;3.38;1.63;;;15.80;99.90;;;;;;5096347;28;20093;-25
2022/04/16 09:43:41;;;;;;;2.75;1.70;;;16.30;99.90;;;;;;5096383;28;20056;-26
2022/04/16 09:46:16;;;;;;;3.38;1.58;;;16.60;99.90;;;;;;5105567;28;20122;-26
2022/04/16 09:48:44;;;;;;;1.80;1.13;;;16.80;99.90;;;;;;5115366;28;20137;-25
2022/04/16 09:51:10;;;;;;;2.15;1.05;;;16.90;99.90;;;;;;5115826;28;20397;-26
2022/04/16 09:53:43;;;;;;;2.03;1.00;;;17.10;99.90;;;;;;5115850;28;20090;-26
2022/04/16 09:56:12;;;;;;;2.83;0.98;;;17.20;99.90;;;;;;5103332;28;20048;-26
2022/04/16 09:58:43;;;;;;;1.30;0.80;;;17.30;99.90;;;;;;5084887;28;20177;-26
2022/04/16 10:01:11;;;;;;;1.92;0.80;;;17.40;99.90;;;;;;5116073;28;20126;-26
2022/04/16 10:03:44;;;;;;;2.33;1.10;;;17.60;99.90;;;;;;5115105;28;20069;-26
2022/04/16 10:06:12;;;;;;;1.30;0.68;;;17.70;99.90;;;;;;5104288;28;20052;-26
2022/04/16 10:08:39;;;;;;;1.55;0.70;;;17.70;99.90;;;;;;5094483;28;20078;-26
2022/04/16 10:11:16;;;;;;;1.90;0.90;;;17.90;99.90;;;;;;5095759;28;20055;-26
2022/04/16 10:13:58;;;;;;;0.90;0.50;;;17.70;99.90;;;;;;5111423;28;20051;-26
2022/04/16 10:16:39;;;;;;;1.02;0.63;;;18.00;99.90;;;;;;5116005;28;20047;-26
2022/04/16 10:19:16;;;;;;;2.92;0.85;;;18.00;99.90;;;;;;5116272;28;20411;-26
2022/04/16 10:21:47;;;;;;;3.60;0.80;;;18.10;99.90;;;;;;5099286;28;20569;-26
2022/04/16 10:24:28;;;;;;;1.50;0.95;;;18.00;99.90;;;;;;5115936;28;20382;-26
2022/04/16 10:27:08;;;;;;;3.05;0.80;;;17.70;99.90;;;;;;5120057;27;20141;-26
2022/04/16 10:29:39;;;;;;;1.30;0.60;;;17.80;99.90;;;;;;5081641;28;20043;-25
2022/04/16 10:32:17;;;;;;;1.73;0.70;;;18.10;99.90;;;;;;5098866;28;20051;-27
2022/04/16 10:34:46;;;;;;;2.38;0.80;;;18.60;99.90;;;;;;5123593;27;20104;-26
2022/04/16 10:37:22;;;;;;;3.70;0.65;;;18.60;99.90;;;;;;5118412;27;20055;-26
2022/04/16 10:39:52;;;;;;;0.82;0.65;;;18.60;99.90;;;;;;5135829;27;20134;-26
2022/04/16 10:42:33;;;;;;;2.30;0.73;;;18.60;99.90;;;;;;5115534;28;20043;-26
2022/04/16 10:45:11;;;;;;;2.53;0.70;;;18.70;99.90;;;;;;5115759;28;20469;-26
2022/04/16 10:47:40;;;;;;;1.80;0.60;;;18.90;99.90;;;;;;5116257;28;20123;-26
2022/04/16 10:50:17;;;;;;;1.70;0.70;;;19.10;99.90;;;;;;5083342;27;20093;-26
2022/04/16 10:53:01;;;;;;;1.17;0.75;;;19.00;99.90;;;;;;5135256;27;20085;-26
2022/04/16 10:55:31;;;;;;;2.10;0.85;;;18.80;99.90;;;;;;5115579;28;20043;-26
2022/04/16 10:58:03;;;;;;;2.35;1.08;;;18.60;99.90;;;;;;5115705;28;20047;-26
2022/04/16 11:00:45;;;;;;;3.30;0.77;;;18.40;99.90;;;;;;5121646;27;20213;-26
2022/04/16 11:03:17;;;;;;;1.63;0.80;;;18.40;99.90;;;;;;5136181;27;20126;-26
2022/04/16 11:05:43;;;;;;;2.22;0.60;;;18.40;99.90;;;;;;5135722;27;20047;-26
2022/04/16 11:08:14;;;;;;;1.38;0.82;;;18.40;99.90;;;;;;5135450;27;20058;-26
2022/04/16 11:10:43;;;;;;;2.05;0.73;;;18.40;99.90;;;;;;5127171;27;20050;-26
2022/04/16 11:13:11;;;;;;;1.10;0.70;;;18.30;99.90;;;;;;5114800;28;20511;-26
2022/04/16 11:15:36;;;;;;;4.07;0.80;;;18.20;99.90;;;;;;5120207;27;20048;-26
2022/04/16 11:18:03;;;;;;;2.15;0.70;;;18.10;99.90;;;;;;5116952;27;20084;-26
2022/04/16 11:20:34;;;;;;;1.92;0.75;;;18.30;99.90;;;;;;5096344;27;20127;-26
2022/04/16 11:23:01;;;;;;;1.50;0.60;;;18.60;99.90;;;;;;5125920;27;20054;-26
2022/04/16 11:34:14;;;;;;;4.10;0.30;;;18.30;99.90;;;;;;5096156;27;20049;-26
2022/04/16 11:36:28;;;;;;;0.68;0.30;;;18.10;99.90;;;;;;5134411;27;20378;-26
2022/04/16 11:38:59;;;;;;;0.88;0.32;;;18.30;99.90;;;;;;5128455;27;20118;-25
2022/04/16 11:41:32;;;;;;;2.58;1.25;;;18.60;99.90;;;;;;5111745;28;20496;-26
2022/04/16 11:43:58;;;;;;;0.45;0.20;;;18.80;99.90;;;;;;5123936;27;20476;-26
2022/04/16 11:46:24;;;;;;;1.17;0.30;;;18.90;99.90;;;;;;5102978;28;20048;-26
2022/04/16 11:49:00;;;;;;;2.05;0.30;;;18.80;99.90;;;;;;5114364;28;20051;-26
2022/04/16 11:51:37;;;;;;;0.65;0.28;;;18.80;99.90;;;;;;5124788;27;20045;-26
2022/04/16 11:54:04;;;;;;;0.95;0.35;;;18.70;99.90;;;;;;5108161;27;20047;-26
2022/04/16 11:56:34;;;;;;;1.48;0.47;;;18.60;99.90;;;;;;5134415;27;20074;-26
2022/04/16 11:59:00;;;;;;;1.65;0.63;;;18.60;99.90;;;;;;5104917;28;20047;-27
2022/04/16 12:01:28;;;;;;;1.13;0.30;;;18.70;99.90;;;;;;5113953;28;20054;-26
2022/04/16 12:03:56;;;;;;;1.27;0.40;;;18.70;99.90;;;;;;5134421;27;20130;-26
2022/04/16 12:06:27;;;;;;;1.38;0.40;;;18.60;99.90;;;;;;5116672;27;20472;-27
2022/04/16 12:09:03;;;;;;;4.38;0.57;;;18.80;99.90;;;;;;5109399;28;20036;-26
2022/04/16 12:11:29;;;;;;;3.45;0.47;;;18.60;99.90;;;;;;5116015;27;20480;-27
2022/04/16 12:14:02;;;;;;;1.23;0.55;;;18.80;99.90;;;;;;5116754;28;20061;-26
2022/04/16 12:16:41;;;;;;;2.08;0.30;;;18.60;99.90;;;;;;5132150;28;20827;-27
2022/04/16 12:19:06;;;;;;;0.98;0.40;;;18.60;99.90;;;;;;5094828;28;20446;-26
2022/04/16 12:21:42;;;;;;;1.15;0.45;;;18.30;99.90;;;;;;5104920;28;20043;-27
2022/04/16 12:24:13;;;;;;;2.33;0.50;;;18.20;99.90;;;;;;5132227;28;20047;-27
2022/04/16 12:26:50;;;;;;;0.55;0.30;;;18.20;99.90;;;;;;5121582;28;20047;-27
2022/04/16 12:29:17;;;;;;;2.05;0.40;;;18.40;99.90;;;;;;5113205;28;20123;-26
2022/04/16 12:31:56;;;;;;;2.88;0.30;;;18.30;99.90;;;;;;5103414;28;20036;-27
2022/04/16 12:34:24;;;;;;;2.03;0.50;;;18.50;99.90;;;;;;5126623;28;20039;-27
2022/04/16 12:36:55;;;;;;;2.65;0.40;;;18.70;99.90;;;;;;5132518;28;20055;-26
2022/04/16 12:39:24;;;;;;;5.55;0.35;;;18.70;99.90;;;;;;5116340;28;20051;-27
2022/04/16 12:41:52;;;;;;;0.75;0.30;;;18.80;99.90;;;;;;5114715;28;20043;-26
2022/04/16 12:44:18;;;;;;;2.05;1.77;;;18.90;99.90;;;;;;5113163;28;20059;-27
2022/04/16 12:46:44;;;;;;;1.65;0.50;;;18.90;99.90;;;;;;5110196;28;20035;-27
2022/04/16 12:49:09;;;;;;;1.38;0.60;;;19.00;99.90;;;;;;5122356;28;20039;-27
2022/04/16 12:51:47;;;;;;;2.88;1.10;;;19.00;99.90;;;;;;5105496;28;20048;-27
2022/04/16 12:54:14;;;;;;;1.30;0.63;;;19.30;99.90;;;;;;5114249;28;20048;-27
2022/04/16 12:56:42;;;;;;;1.58;0.30;;;19.40;99.90;;;;;;5118412;28;20066;-27
2022/04/16 12:59:13;;;;;;;1.40;0.50;;;19.30;99.90;;;;;;5127103;28;20135;-27
2022/04/16 13:01:39;;;;;;;2.60;0.45;;;19.30;99.90;;;;;;5120232;28;20123;-27
2022/04/16 13:04:10;;;;;;;1.10;0.50;;;19.20;99.90;;;;;;5123159;27;20127;-27
2022/04/16 13:06:41;;;;;;;3.30;0.40;;;18.90;99.90;;;;;;5129786;28;20043;-28
2022/04/16 13:09:12;;;;;;;1.77;0.52;;;18.60;99.90;;;;;;5106796;28;20044;-27
2022/04/16 13:11:45;;;;;;;2.42;0.60;;;18.60;99.90;;;;;;5101620;28;20118;-27
2022/04/16 13:14:19;;;;;;;3.08;0.50;;;18.50;99.90;;;;;;5124160;28;20361;-27